Terminal Aerodrome Forecast
Issued by NWS

Home | Current Version | Previous Version | Text Only | Print | Product List | Glossary On
Versions: 1 2 3 4 5 6 7 8 9 10 11 12 13 14 15 16 17 18 19 20 21
000
FTUS43 KGRR 221740
TAFJXN
TAF
KJXN 221740Z 2218/2318 22010KT 5SM HZ BKN009 OVC015
     FM221900 23010G16KT P6SM BKN015
     FM222200 20010G16KT P6SM FEW015
     FM230300 23010KT 6SM HZ BKN010
     FM230900 24008KT 2SM BR OVC009=

USA.gov is the U.S. government's official web portal to all federal, state and local government web resources and services.